Shevlin, MN (56676)

2:32 AM CDT on September 25, 2016 (GMT -0500)
Shevlin | | Change Station

Elev 1486 ft 47.53 °N, 95.29 °W | Updated 14 seconds ago

Rain
Rain
66.0 °F
Feels Like 66.0 °F
N
5.6
Wind Variable Wind from SE
Gusts 7.4 mph

Today
High -- | Low -- °F
--% Chance of Precip.
Yesterday
High -- | Low -- °F
Precip. -- in
Pressure 29.84 in
Visibility 10.0 miles
Clouds Overcast 900 ft
Dew Point 66 °F
Humidity 98%
Rainfall 0.25 in
Snow Depth Not available.
7:12 AM 7:11 PM
Waning Crescent, 30% visible
METAR KBJI 250712Z AUTO 14009KT 10SM OVC009 18/17 A2984 RMK AO2 T01810171
Pressure 29.84 in
Visibility 10.0 miles
Clouds Overcast 900 ft
Dew Point 66 °F
Humidity 98%
Rainfall 0.25 in
Snow Depth Not available.
7:12 AM 7:11 PM
Waning Crescent, 30% visible
METAR KBJI 250712Z AUTO 14009KT 10SM OVC009 18/17 A2984 RMK AO2 T01810171

10-Day Weather Forecast

Almanac

Astronomy

Sep. 25, 2016 Rise Set
Actual Time
Civil Twilight
Nautical Twilight
Astronomical Twilight
Moon
Length of Visible Light
Length of Day
Tomorrow will be .
, % of the Moon is Illuminated

Today's Extremes

State Highs State Lows

Community

WunderPhotos

Upload Photos

1,941,554 photos uploaded!

WunderBlog® & News

Nearby

Air Quality

  Air Quality AQ Index Pollutant
Not available.

Snow Depth

Station Depth Elevation

Earthquake Activity

City Distance Mag. Time & Date
Minimum magnitude displayed is 2.5.

Coastal Water Temperatures

Place Temperature

Stations

Nearby Weather Stations

Station Location Temp. Windchill Dew Point Humidity Wind Precip. Elev Updated Type
                   

Watches & Warnings

There are currently no watches in effect.